Terminal Aerodrome Forecast
Issued by NWS Sioux Falls, SD

Home | Current Version | Previous Version | Text Only | Print | Product List | Glossary On
Versions: 1 2 3 4 5 6 7 8 9 10 11 12 13 14 15 16
095
FTUS43 KFSD 240520
TAFHON
TAF
KHON 240520Z 2406/2506 13008KT P6SM OVC010
     FM241100 08010KT 5SM -SN OVC008
     FM241400 06013KT 2SM -SN OVC005
     FM241800 03015G23KT 1SM -SN OVC003
     FM250300 35019G27KT 3/4SM -SN OVC008=

USA.gov is the U.S. government's official web portal to all federal, state and local government web resources and services.